Terminal Aerodrome Forecast
Issued by NWS

Home | Current Version | Previous Version | Text Only | Print | Product List | Glossary On
Versions: 1 2 3 4 5 6 7 8 9 10 11 12 13 14 15 16 17 18 19 20 21 22 23 24 25 26 27 28 29 30 31 32 33 34 35
000
FTUS41 KOKX 271139
TAFGON
TAF
KGON 271139Z 2712/2812 VRB03KT 1 1/2SM BR OVC003
     FM271600 19006KT 3SM BR BKN004 OVC008
     FM271800 18007KT P6SM BKN008
     FM272200 VRB05KT 4SM BR SCT004 OVC008
     FM280300 VRB04KT 1/2SM -DZ FG VV003=

USA.gov is the U.S. government's official web portal to all federal, state and local government web resources and services.